sensor_id;sensor_type;location;lat;lon;timestamp;temperature;humidity
44223;DHT22;29895;48.804;9.386;2023-07-29T00:01:42;17.20;99.90
44223;DHT22;29895;48.804;9.386;2023-07-29T00:04:08;17.20;99.90
44223;DHT22;29895;48.804;9.386;2023-07-29T00:06:37;17.30;99.90
44223;DHT22;29895;48.804;9.386;2023-07-29T00:09:03;17.30;99.90
44223;DHT22;29895;48.804;9.386;2023-07-29T00:11:28;17.40;99.90
44223;DHT22;29895;48.804;9.386;2023-07-29T00:13:54;17.40;99.90
44223;DHT22;29895;48.804;9.386;2023-07-29T00:16:20;17.40;99.90
44223;DHT22;29895;48.804;9.386;2023-07-29T00:18:49;17.40;99.90
44223;DHT22;29895;48.804;9.386;2023-07-29T00:21:14;17.40;99.90
44223;DHT22;29895;48.804;9.386;2023-07-29T00:23:40;17.40;99.90
44223;DHT22;29895;48.804;9.386;2023-07-29T00:26:06;17.40;99.90
44223;DHT22;29895;48.804;9.386;2023-07-29T00:28:32;17.50;99.90
44223;DHT22;29895;48.804;9.386;2023-07-29T00:30:57;17.60;99.90
44223;DHT22;29895;48.804;9.386;2023-07-29T00:33:23;17.60;99.90
44223;DHT22;29895;48.804;9.386;2023-07-29T00:35:49;17.60;99.90
44223;DHT22;29895;48.804;9.386;2023-07-29T00:38:14;17.70;99.90
44223;DHT22;29895;48.804;9.386;2023-07-29T00:40:40;17.70;99.90
44223;DHT22;29895;48.804;9.386;2023-07-29T00:43:06;17.70;99.90
44223;DHT22;29895;48.804;9.386;2023-07-29T00:45:32;17.60;99.90
44223;DHT22;29895;48.804;9.386;2023-07-29T00:47:59;17.60;99.90
44223;DHT22;29895;48.804;9.386;2023-07-29T00:50:26;17.60;99.90
44223;DHT22;29895;48.804;9.386;2023-07-29T00:52:54;17.50;99.90
44223;DHT22;29895;48.804;9.386;2023-07-29T00:55:20;17.60;99.90
44223;DHT22;29895;48.804;9.386;2023-07-29T00:57:46;17.60;99.90
44223;DHT22;29895;48.804;9.386;2023-07-29T01:00:14;17.70;99.90
44223;DHT22;29895;48.804;9.386;2023-07-29T01:02:42;17.70;99.90
44223;DHT22;29895;48.804;9.386;2023-07-29T01:05:08;17.70;99.90
44223;DHT22;29895;48.804;9.386;2023-07-29T01:16:17;17.50;99.90
44223;DHT22;29895;48.804;9.386;2023-07-29T01:18:47;17.40;99.90
44223;DHT22;29895;48.804;9.386;2023-07-29T01:21:14;17.40;99.90
44223;DHT22;29895;48.804;9.386;2023-07-29T01:23:41;17.30;99.90
44223;DHT22;29895;48.804;9.386;2023-07-29T01:26:06;17.40;99.90
44223;DHT22;29895;48.804;9.386;2023-07-29T01:28:32;17.40;99.90
44223;DHT22;29895;48.804;9.386;2023-07-29T01:33:42;17.30;99.90
44223;DHT22;29895;48.804;9.386;2023-07-29T01:36:21;17.30;99.90
44223;DHT22;29895;48.804;9.386;2023-07-29T01:38:48;17.30;99.90
44223;DHT22;29895;48.804;9.386;2023-07-29T01:41:16;17.30;99.90
44223;DHT22;29895;48.804;9.386;2023-07-29T01:43:42;17.20;99.90
44223;DHT22;29895;48.804;9.386;2023-07-29T01:46:12;17.20;99.90
44223;DHT22;29895;48.804;9.386;2023-07-29T01:48:39;17.20;99.90
44223;DHT22;29895;48.804;9.386;2023-07-29T01:51:05;17.20;99.90
44223;DHT22;29895;48.804;9.386;2023-07-29T01:53:31;17.20;99.90
44223;DHT22;29895;48.804;9.386;2023-07-29T01:55:57;17.20;99.90
44223;DHT22;29895;48.804;9.386;2023-07-29T01:58:23;17.20;99.90
44223;DHT22;29895;48.804;9.386;2023-07-29T02:00:49;17.20;99.90
44223;DHT22;29895;48.804;9.386;2023-07-29T02:03:15;17.20;99.90
44223;DHT22;29895;48.804;9.386;2023-07-29T02:05:40;17.20;99.90
44223;DHT22;29895;48.804;9.386;2023-07-29T02:08:09;17.30;99.90
44223;DHT22;29895;48.804;9.386;2023-07-29T02:10:35;17.30;99.90
44223;DHT22;29895;48.804;9.386;2023-07-29T02:13:01;17.40;99.90
44223;DHT22;29895;48.804;9.386;2023-07-29T02:15:26;17.40;99.90
44223;DHT22;29895;48.804;9.386;2023-07-29T02:17:53;17.40;99.90
44223;DHT22;29895;48.804;9.386;2023-07-29T02:20:18;17.40;99.90
44223;DHT22;29895;48.804;9.386;2023-07-29T02:22:44;17.30;99.90
44223;DHT22;29895;48.804;9.386;2023-07-29T02:25:10;17.30;99.90
44223;DHT22;29895;48.804;9.386;2023-07-29T02:27:36;17.30;99.90
44223;DHT22;29895;48.804;9.386;2023-07-29T02:30:02;17.40;99.90
44223;DHT22;29895;48.804;9.386;2023-07-29T02:32:28;17.40;99.90
44223;DHT22;29895;48.804;9.386;2023-07-29T02:34:54;17.40;99.90
44223;DHT22;29895;48.804;9.386;2023-07-29T02:37:19;17.30;99.90
44223;DHT22;29895;48.804;9.386;2023-07-29T02:39:45;17.30;99.90
44223;DHT22;29895;48.804;9.386;2023-07-29T02:42:11;17.30;99.90
44223;DHT22;29895;48.804;9.386;2023-07-29T02:44:37;17.30;99.90
44223;DHT22;29895;48.804;9.386;2023-07-29T02:47:03;17.30;99.90
44223;DHT22;29895;48.804;9.386;2023-07-29T02:49:28;17.30;99.90
44223;DHT22;29895;48.804;9.386;2023-07-29T02:51:54;17.30;99.90
44223;DHT22;29895;48.804;9.386;2023-07-29T02:54:20;17.30;99.90
44223;DHT22;29895;48.804;9.386;2023-07-29T02:56:46;17.20;99.90
44223;DHT22;29895;48.804;9.386;2023-07-29T02:59:11;17.20;99.90
44223;DHT22;29895;48.804;9.386;2023-07-29T03:01:37;17.20;99.90
44223;DHT22;29895;48.804;9.386;2023-07-29T03:04:03;17.20;99.90
44223;DHT22;29895;48.804;9.386;2023-07-29T03:06:29;17.20;99.90
44223;DHT22;29895;48.804;9.386;2023-07-29T03:08:54;17.10;99.90
44223;DHT22;29895;48.804;9.386;2023-07-29T03:11:20;17.10;99.90
44223;DHT22;29895;48.804;9.386;2023-07-29T03:13:46;17.00;99.90
44223;DHT22;29895;48.804;9.386;2023-07-29T03:16:16;17.00;99.90
44223;DHT22;29895;48.804;9.386;2023-07-29T03:18:42;17.00;99.90
44223;DHT22;29895;48.804;9.386;2023-07-29T03:21:09;16.90;99.90
44223;DHT22;29895;48.804;9.386;2023-07-29T03:23:36;16.90;99.90
44223;DHT22;29895;48.804;9.386;2023-07-29T03:26:03;16.90;99.90
44223;DHT22;29895;48.804;9.386;2023-07-29T03:28:47;16.80;99.90
44223;DHT22;29895;48.804;9.386;2023-07-29T03:31:12;16.80;99.90
44223;DHT22;29895;48.804;9.386;2023-07-29T03:33:38;16.80;99.90
44223;DHT22;29895;48.804;9.386;2023-07-29T03:36:04;16.70;99.90
44223;DHT22;29895;48.804;9.386;2023-07-29T03:38:30;16.70;99.90
44223;DHT22;29895;48.804;9.386;2023-07-29T03:40:56;16.70;99.90
44223;DHT22;29895;48.804;9.386;2023-07-29T03:43:21;16.70;99.90
44223;DHT22;29895;48.804;9.386;2023-07-29T03:45:47;16.70;99.90
44223;DHT22;29895;48.804;9.386;2023-07-29T03:48:13;16.70;99.90
44223;DHT22;29895;48.804;9.386;2023-07-29T03:50:38;16.70;99.90
44223;DHT22;29895;48.804;9.386;2023-07-29T03:53:05;16.80;99.90
44223;DHT22;29895;48.804;9.386;2023-07-29T03:55:31;16.80;99.90
44223;DHT22;29895;48.804;9.386;2023-07-29T03:58:00;16.80;99.90
44223;DHT22;29895;48.804;9.386;2023-07-29T04:00:27;16.80;99.90
44223;DHT22;29895;48.804;9.386;2023-07-29T04:02:53;16.90;99.90
44223;DHT22;29895;48.804;9.386;2023-07-29T04:05:19;16.90;99.90
44223;DHT22;29895;48.804;9.386;2023-07-29T04:07:45;16.90;99.90
44223;DHT22;29895;48.804;9.386;2023-07-29T04:10:11;16.90;99.90
44223;DHT22;29895;48.804;9.386;2023-07-29T04:12:37;16.90;99.90
44223;DHT22;29895;48.804;9.386;2023-07-29T04:15:03;17.00;99.90
44223;DHT22;29895;48.804;9.386;2023-07-29T04:17:29;17.10;99.90
44223;DHT22;29895;48.804;9.386;2023-07-29T04:19:54;17.10;99.90
44223;DHT22;29895;48.804;9.386;2023-07-29T04:22:20;17.10;99.90
44223;DHT22;29895;48.804;9.386;2023-07-29T04:24:46;17.10;99.90
44223;DHT22;29895;48.804;9.386;2023-07-29T04:27:12;17.10;99.90
44223;DHT22;29895;48.804;9.386;2023-07-29T04:29:37;17.00;99.90
44223;DHT22;29895;48.804;9.386;2023-07-29T04:32:04;17.00;99.90
44223;DHT22;29895;48.804;9.386;2023-07-29T04:34:30;16.90;99.90
44223;DHT22;29895;48.804;9.386;2023-07-29T04:36:56;17.00;99.90
44223;DHT22;29895;48.804;9.386;2023-07-29T04:39:22;17.00;99.90
44223;DHT22;29895;48.804;9.386;2023-07-29T04:41:47;17.00;99.90
44223;DHT22;29895;48.804;9.386;2023-07-29T04:44:13;17.00;99.90
44223;DHT22;29895;48.804;9.386;2023-07-29T04:46:39;17.00;99.90
44223;DHT22;29895;48.804;9.386;2023-07-29T04:49:05;17.00;99.90
44223;DHT22;29895;48.804;9.386;2023-07-29T04:51:31;17.00;99.90
44223;DHT22;29895;48.804;9.386;2023-07-29T04:53:57;17.00;99.90
44223;DHT22;29895;48.804;9.386;2023-07-29T04:56:24;17.00;99.90
44223;DHT22;29895;48.804;9.386;2023-07-29T04:58:49;17.00;99.90
44223;DHT22;29895;48.804;9.386;2023-07-29T05:01:15;17.10;99.90
44223;DHT22;29895;48.804;9.386;2023-07-29T05:03:41;17.10;99.90
44223;DHT22;29895;48.804;9.386;2023-07-29T05:06:06;16.90;99.90
44223;DHT22;29895;48.804;9.386;2023-07-29T05:08:32;17.00;99.90
44223;DHT22;29895;48.804;9.386;2023-07-29T05:10:57;17.00;99.90
44223;DHT22;29895;48.804;9.386;2023-07-29T05:13:24;17.00;99.90
44223;DHT22;29895;48.804;9.386;2023-07-29T05:15:50;17.00;99.90
44223;DHT22;29895;48.804;9.386;2023-07-29T05:18:16;17.10;99.90
44223;DHT22;29895;48.804;9.386;2023-07-29T05:20:42;17.10;99.90
44223;DHT22;29895;48.804;9.386;2023-07-29T05:23:08;17.10;99.90
44223;DHT22;29895;48.804;9.386;2023-07-29T05:25:33;17.10;99.90
44223;DHT22;29895;48.804;9.386;2023-07-29T05:28:02;17.10;99.90
44223;DHT22;29895;48.804;9.386;2023-07-29T05:30:29;17.20;99.90
44223;DHT22;29895;48.804;9.386;2023-07-29T05:33:00;17.20;99.90
44223;DHT22;29895;48.804;9.386;2023-07-29T05:35:26;17.30;99.90
44223;DHT22;29895;48.804;9.386;2023-07-29T05:37:52;17.40;99.90
44223;DHT22;29895;48.804;9.386;2023-07-29T05:40:17;17.40;99.90
44223;DHT22;29895;48.804;9.386;2023-07-29T05:42:44;17.40;99.90
44223;DHT22;29895;48.804;9.386;2023-07-29T05:45:11;17.40;99.90
44223;DHT22;29895;48.804;9.386;2023-07-29T05:47:37;17.40;99.90
44223;DHT22;29895;48.804;9.386;2023-07-29T05:50:03;17.40;99.90
44223;DHT22;29895;48.804;9.386;2023-07-29T05:52:33;17.50;99.90
44223;DHT22;29895;48.804;9.386;2023-07-29T05:54:59;17.50;99.90
44223;DHT22;29895;48.804;9.386;2023-07-29T05:57:24;17.60;99.90
44223;DHT22;29895;48.804;9.386;2023-07-29T05:59:50;17.60;99.90
44223;DHT22;29895;48.804;9.386;2023-07-29T06:02:16;17.60;99.90
44223;DHT22;29895;48.804;9.386;2023-07-29T06:04:41;17.80;99.90
44223;DHT22;29895;48.804;9.386;2023-07-29T06:07:07;17.90;99.90
44223;DHT22;29895;48.804;9.386;2023-07-29T06:09:33;18.10;99.90
44223;DHT22;29895;48.804;9.386;2023-07-29T06:11:59;18.20;99.90
44223;DHT22;29895;48.804;9.386;2023-07-29T06:14:24;18.40;99.90
44223;DHT22;29895;48.804;9.386;2023-07-29T06:16:50;18.50;99.90
44223;DHT22;29895;48.804;9.386;2023-07-29T06:19:16;18.80;99.90
44223;DHT22;29895;48.804;9.386;2023-07-29T06:21:42;19.20;99.90
44223;DHT22;29895;48.804;9.386;2023-07-29T06:24:07;19.80;99.90
44223;DHT22;29895;48.804;9.386;2023-07-29T06:26:33;20.30;99.90
44223;DHT22;29895;48.804;9.386;2023-07-29T06:28:59;20.30;99.90
44223;DHT22;29895;48.804;9.386;2023-07-29T06:31:24;20.40;99.90
44223;DHT22;29895;48.804;9.386;2023-07-29T06:33:50;20.60;99.90
44223;DHT22;29895;48.804;9.386;2023-07-29T06:36:16;20.60;99.90
44223;DHT22;29895;48.804;9.386;2023-07-29T06:38:41;20.70;99.90
44223;DHT22;29895;48.804;9.386;2023-07-29T06:41:07;20.60;99.90
44223;DHT22;29895;48.804;9.386;2023-07-29T06:43:33;20.60;99.90
44223;DHT22;29895;48.804;9.386;2023-07-29T06:45:59;20.70;99.90
44223;DHT22;29895;48.804;9.386;2023-07-29T06:48:24;20.80;99.90
44223;DHT22;29895;48.804;9.386;2023-07-29T06:50:50;20.80;99.90
44223;DHT22;29895;48.804;9.386;2023-07-29T06:53:16;20.80;99.90
44223;DHT22;29895;48.804;9.386;2023-07-29T06:55:43;20.60;99.90
44223;DHT22;29895;48.804;9.386;2023-07-29T06:58:09;20.40;99.90
44223;DHT22;29895;48.804;9.386;2023-07-29T07:00:35;20.10;99.90
44223;DHT22;29895;48.804;9.386;2023-07-29T07:03:00;19.90;99.90
44223;DHT22;29895;48.804;9.386;2023-07-29T07:05:26;19.80;99.90
44223;DHT22;29895;48.804;9.386;2023-07-29T07:07:52;19.60;99.90
44223;DHT22;29895;48.804;9.386;2023-07-29T07:10:18;19.50;99.90
44223;DHT22;29895;48.804;9.386;2023-07-29T07:12:44;19.50;99.90
44223;DHT22;29895;48.804;9.386;2023-07-29T07:15:09;19.40;99.90
44223;DHT22;29895;48.804;9.386;2023-07-29T07:17:35;19.30;99.90
44223;DHT22;29895;48.804;9.386;2023-07-29T07:20:01;19.10;99.90
44223;DHT22;29895;48.804;9.386;2023-07-29T07:22:26;19.00;99.90
44223;DHT22;29895;48.804;9.386;2023-07-29T07:24:52;18.90;99.90
44223;DHT22;29895;48.804;9.386;2023-07-29T07:27:18;18.80;99.90
44223;DHT22;29895;48.804;9.386;2023-07-29T07:29:43;18.70;99.90
44223;DHT22;29895;48.804;9.386;2023-07-29T07:32:09;18.70;99.90
44223;DHT22;29895;48.804;9.386;2023-07-29T07:34:35;18.60;99.90
44223;DHT22;29895;48.804;9.386;2023-07-29T07:37:01;18.60;99.90
44223;DHT22;29895;48.804;9.386;2023-07-29T07:39:26;18.60;99.90
44223;DHT22;29895;48.804;9.386;2023-07-29T07:41:52;18.60;99.90
44223;DHT22;29895;48.804;9.386;2023-07-29T07:44:18;18.60;99.90
44223;DHT22;29895;48.804;9.386;2023-07-29T07:46:45;18.60;99.90
44223;DHT22;29895;48.804;9.386;2023-07-29T07:49:11;18.60;99.90
44223;DHT22;29895;48.804;9.386;2023-07-29T07:51:38;18.70;99.90
44223;DHT22;29895;48.804;9.386;2023-07-29T07:54:04;18.80;99.90
44223;DHT22;29895;48.804;9.386;2023-07-29T07:56:30;19.00;99.90
44223;DHT22;29895;48.804;9.386;2023-07-29T07:58:55;19.10;99.90
44223;DHT22;29895;48.804;9.386;2023-07-29T08:01:21;19.30;99.90
44223;DHT22;29895;48.804;9.386;2023-07-29T08:03:47;19.40;99.90
44223;DHT22;29895;48.804;9.386;2023-07-29T08:06:12;19.40;99.90
44223;DHT22;29895;48.804;9.386;2023-07-29T08:08:38;19.40;99.90
44223;DHT22;29895;48.804;9.386;2023-07-29T08:11:04;19.40;99.90
44223;DHT22;29895;48.804;9.386;2023-07-29T08:13:29;19.50;99.90
44223;DHT22;29895;48.804;9.386;2023-07-29T08:15:55;19.50;99.90
44223;DHT22;29895;48.804;9.386;2023-07-29T08:18:21;19.70;99.90
44223;DHT22;29895;48.804;9.386;2023-07-29T08:20:58;19.80;99.90
44223;DHT22;29895;48.804;9.386;2023-07-29T08:23:25;19.80;99.90
44223;DHT22;29895;48.804;9.386;2023-07-29T08:25:53;19.80;99.90
44223;DHT22;29895;48.804;9.386;2023-07-29T08:28:18;19.90;99.90
44223;DHT22;29895;48.804;9.386;2023-07-29T08:30:44;20.10;99.90
44223;DHT22;29895;48.804;9.386;2023-07-29T08:33:10;20.30;99.90
44223;DHT22;29895;48.804;9.386;2023-07-29T08:35:35;20.40;99.90
44223;DHT22;29895;48.804;9.386;2023-07-29T08:38:02;20.60;99.90
44223;DHT22;29895;48.804;9.386;2023-07-29T08:40:29;20.80;99.90
44223;DHT22;29895;48.804;9.386;2023-07-29T08:42:58;20.90;99.90
44223;DHT22;29895;48.804;9.386;2023-07-29T08:45:29;21.10;99.90
44223;DHT22;29895;48.804;9.386;2023-07-29T08:47:57;21.30;99.90
44223;DHT22;29895;48.804;9.386;2023-07-29T08:50:24;21.50;99.90
44223;DHT22;29895;48.804;9.386;2023-07-29T08:52:52;21.70;99.90
44223;DHT22;29895;48.804;9.386;2023-07-29T08:55:18;22.00;99.90
44223;DHT22;29895;48.804;9.386;2023-07-29T08:57:45;22.20;99.90
44223;DHT22;29895;48.804;9.386;2023-07-29T09:00:11;22.30;99.90
44223;DHT22;29895;48.804;9.386;2023-07-29T09:02:38;22.30;99.90
44223;DHT22;29895;48.804;9.386;2023-07-29T09:05:04;22.30;99.90
44223;DHT22;29895;48.804;9.386;2023-07-29T09:07:31;22.40;99.90
44223;DHT22;29895;48.804;9.386;2023-07-29T09:09:58;22.40;99.90
44223;DHT22;29895;48.804;9.386;2023-07-29T09:12:24;22.60;99.90
44223;DHT22;29895;48.804;9.386;2023-07-29T09:14:53;22.80;99.90
44223;DHT22;29895;48.804;9.386;2023-07-29T09:17:20;23.30;99.90
44223;DHT22;29895;48.804;9.386;2023-07-29T09:19:51;23.70;99.90
44223;DHT22;29895;48.804;9.386;2023-07-29T09:22:20;24.30;99.90
44223;DHT22;29895;48.804;9.386;2023-07-29T09:24:49;24.50;99.90
44223;DHT22;29895;48.804;9.386;2023-07-29T09:27:33;24.50;99.90
44223;DHT22;29895;48.804;9.386;2023-07-29T09:30:04;24.60;99.90
44223;DHT22;29895;48.804;9.386;2023-07-29T09:32:30;24.60;99.90
44223;DHT22;29895;48.804;9.386;2023-07-29T09:34:56;24.70;99.90
44223;DHT22;29895;48.804;9.386;2023-07-29T09:37:22;24.60;99.90
44223;DHT22;29895;48.804;9.386;2023-07-29T09:39:49;24.50;99.90
44223;DHT22;29895;48.804;9.386;2023-07-29T09:42:22;24.40;99.90
44223;DHT22;29895;48.804;9.386;2023-07-29T09:44:50;24.80;99.90
44223;DHT22;29895;48.804;9.386;2023-07-29T09:47:20;25.00;99.90
44223;DHT22;29895;48.804;9.386;2023-07-29T09:49:47;25.20;99.90
44223;DHT22;29895;48.804;9.386;2023-07-29T09:52:15;25.40;99.90
44223;DHT22;29895;48.804;9.386;2023-07-29T09:54:43;25.50;99.90
44223;DHT22;29895;48.804;9.386;2023-07-29T09:57:19;25.90;99.90
44223;DHT22;29895;48.804;9.386;2023-07-29T09:59:55;26.30;99.90
44223;DHT22;29895;48.804;9.386;2023-07-29T10:02:20;26.70;99.90
44223;DHT22;29895;48.804;9.386;2023-07-29T10:04:47;26.70;99.90
44223;DHT22;29895;48.804;9.386;2023-07-29T10:07:13;26.60;99.90
44223;DHT22;29895;48.804;9.386;2023-07-29T10:09:40;26.50;99.90
44223;DHT22;29895;48.804;9.386;2023-07-29T10:12:06;26.50;99.90
44223;DHT22;29895;48.804;9.386;2023-07-29T10:14:33;26.60;99.90
44223;DHT22;29895;48.804;9.386;2023-07-29T10:17:00;26.90;99.90
44223;DHT22;29895;48.804;9.386;2023-07-29T10:19:26;27.10;99.90
44223;DHT22;29895;48.804;9.386;2023-07-29T10:21:52;27.10;99.90
44223;DHT22;29895;48.804;9.386;2023-07-29T10:24:24;27.30;99.90
44223;DHT22;29895;48.804;9.386;2023-07-29T10:26:57;27.40;99.90
44223;DHT22;29895;48.804;9.386;2023-07-29T10:29:24;27.50;99.90
44223;DHT22;29895;48.804;9.386;2023-07-29T10:31:55;27.80;99.90
44223;DHT22;29895;48.804;9.386;2023-07-29T10:34:22;27.80;99.90
44223;DHT22;29895;48.804;9.386;2023-07-29T10:36:49;27.50;99.90
44223;DHT22;29895;48.804;9.386;2023-07-29T10:39:15;27.30;99.90
44223;DHT22;29895;48.804;9.386;2023-07-29T10:41:56;26.60;99.90
44223;DHT22;29895;48.804;9.386;2023-07-29T10:47:20;23.00;99.90
44223;DHT22;29895;48.804;9.386;2023-07-29T10:49:48;22.20;99.90
44223;DHT22;29895;48.804;9.386;2023-07-29T10:52:15;21.90;99.90
44223;DHT22;29895;48.804;9.386;2023-07-29T10:54:46;21.70;99.90
44223;DHT22;29895;48.804;9.386;2023-07-29T10:57:38;21.10;99.90
44223;DHT22;29895;48.804;9.386;2023-07-29T11:00:06;20.90;99.90
44223;DHT22;29895;48.804;9.386;2023-07-29T11:02:35;21.00;99.90
44223;DHT22;29895;48.804;9.386;2023-07-29T11:05:16;21.50;99.90
44223;DHT22;29895;48.804;9.386;2023-07-29T11:07:46;22.10;99.90
44223;DHT22;29895;48.804;9.386;2023-07-29T11:10:13;22.70;99.90
44223;DHT22;29895;48.804;9.386;2023-07-29T11:17:52;23.60;99.90
44223;DHT22;29895;48.804;9.386;2023-07-29T11:20:24;23.80;99.90
44223;DHT22;29895;48.804;9.386;2023-07-29T11:22:50;24.20;99.90
44223;DHT22;29895;48.804;9.386;2023-07-29T11:25:17;24.80;99.90
44223;DHT22;29895;48.804;9.386;2023-07-29T11:27:43;25.20;99.90
44223;DHT22;29895;48.804;9.386;2023-07-29T11:30:11;25.50;99.90
44223;DHT22;29895;48.804;9.386;2023-07-29T11:32:38;26.10;99.90
44223;DHT22;29895;48.804;9.386;2023-07-29T11:35:09;26.10;99.90
44223;DHT22;29895;48.804;9.386;2023-07-29T11:37:39;25.90;99.90
44223;DHT22;29895;48.804;9.386;2023-07-29T11:40:05;25.90;99.90
44223;DHT22;29895;48.804;9.386;2023-07-29T11:42:33;26.20;99.90
44223;DHT22;29895;48.804;9.386;2023-07-29T11:45:02;26.60;99.90
44223;DHT22;29895;48.804;9.386;2023-07-29T11:47:29;26.70;99.90
44223;DHT22;29895;48.804;9.386;2023-07-29T11:49:58;26.60;99.90
44223;DHT22;29895;48.804;9.386;2023-07-29T11:52:26;26.50;99.90
44223;DHT22;29895;48.804;9.386;2023-07-29T11:54:52;26.20;99.90
44223;DHT22;29895;48.804;9.386;2023-07-29T11:57:19;26.20;99.90
44223;DHT22;29895;48.804;9.386;2023-07-29T11:59:46;25.90;99.90
44223;DHT22;29895;48.804;9.386;2023-07-29T12:02:14;25.70;99.90
44223;DHT22;29895;48.804;9.386;2023-07-29T12:04:41;25.70;99.90
44223;DHT22;29895;48.804;9.386;2023-07-29T12:07:07;25.80;99.90
44223;DHT22;29895;48.804;9.386;2023-07-29T12:09:34;25.90;99.90
44223;DHT22;29895;48.804;9.386;2023-07-29T12:12:01;26.30;99.90
44223;DHT22;29895;48.804;9.386;2023-07-29T12:14:31;26.60;99.90
44223;DHT22;29895;48.804;9.386;2023-07-29T12:17:03;26.70;99.90
44223;DHT22;29895;48.804;9.386;2023-07-29T12:19:37;26.70;99.90
44223;DHT22;29895;48.804;9.386;2023-07-29T12:22:04;26.50;99.90
44223;DHT22;29895;48.804;9.386;2023-07-29T12:24:31;26.70;99.90
44223;DHT22;29895;48.804;9.386;2023-07-29T12:26:57;27.10;99.90
44223;DHT22;29895;48.804;9.386;2023-07-29T12:29:23;27.30;99.90
44223;DHT22;29895;48.804;9.386;2023-07-29T12:31:56;27.50;99.90
44223;DHT22;29895;48.804;9.386;2023-07-29T12:34:25;27.80;99.90
44223;DHT22;29895;48.804;9.386;2023-07-29T12:36:51;27.50;99.90
44223;DHT22;29895;48.804;9.386;2023-07-29T12:39:23;27.40;99.90
44223;DHT22;29895;48.804;9.386;2023-07-29T12:41:49;27.70;99.90
44223;DHT22;29895;48.804;9.386;2023-07-29T12:44:15;27.90;99.90
44223;DHT22;29895;48.804;9.386;2023-07-29T12:46:40;28.30;99.90
44223;DHT22;29895;48.804;9.386;2023-07-29T12:49:06;28.60;99.90
44223;DHT22;29895;48.804;9.386;2023-07-29T12:51:33;28.60;99.90
44223;DHT22;29895;48.804;9.386;2023-07-29T12:53:59;28.70;99.90
44223;DHT22;29895;48.804;9.386;2023-07-29T12:56:24;29.20;99.90
44223;DHT22;29895;48.804;9.386;2023-07-29T12:58:50;29.40;99.90
44223;DHT22;29895;48.804;9.386;2023-07-29T13:01:16;28.90;99.90
44223;DHT22;29895;48.804;9.386;2023-07-29T13:03:45;28.80;99.90
44223;DHT22;29895;48.804;9.386;2023-07-29T13:06:11;28.60;99.90
44223;DHT22;29895;48.804;9.386;2023-07-29T13:08:37;28.70;99.90
44223;DHT22;29895;48.804;9.386;2023-07-29T13:11:04;28.50;99.90
44223;DHT22;29895;48.804;9.386;2023-07-29T13:13:30;28.00;99.90
44223;DHT22;29895;48.804;9.386;2023-07-29T13:15:56;27.80;99.90
44223;DHT22;29895;48.804;9.386;2023-07-29T13:18:22;27.80;99.90
44223;DHT22;29895;48.804;9.386;2023-07-29T13:20:48;27.80;99.90
44223;DHT22;29895;48.804;9.386;2023-07-29T13:23:13;27.80;99.90
44223;DHT22;29895;48.804;9.386;2023-07-29T13:25:39;27.90;99.90
44223;DHT22;29895;48.804;9.386;2023-07-29T13:28:05;28.00;99.90
44223;DHT22;29895;48.804;9.386;2023-07-29T13:30:30;28.10;99.90
44223;DHT22;29895;48.804;9.386;2023-07-29T13:32:56;28.20;99.80
44223;DHT22;29895;48.804;9.386;2023-07-29T13:35:22;28.10;99.90
44223;DHT22;29895;48.804;9.386;2023-07-29T13:37:47;27.90;99.90
44223;DHT22;29895;48.804;9.386;2023-07-29T13:40:13;27.90;99.90
44223;DHT22;29895;48.804;9.386;2023-07-29T13:42:39;27.90;99.90
44223;DHT22;29895;48.804;9.386;2023-07-29T13:45:05;28.00;99.90
44223;DHT22;29895;48.804;9.386;2023-07-29T13:47:30;28.00;99.90
44223;DHT22;29895;48.804;9.386;2023-07-29T13:49:56;27.90;99.90
44223;DHT22;29895;48.804;9.386;2023-07-29T13:52:22;27.80;99.90
44223;DHT22;29895;48.804;9.386;2023-07-29T13:54:47;27.50;99.90
44223;DHT22;29895;48.804;9.386;2023-07-29T13:57:13;27.40;99.90
44223;DHT22;29895;48.804;9.386;2023-07-29T13:59:38;27.40;99.90
44223;DHT22;29895;48.804;9.386;2023-07-29T14:02:07;27.60;99.90
44223;DHT22;29895;48.804;9.386;2023-07-29T14:04:33;27.70;99.90
44223;DHT22;29895;48.804;9.386;2023-07-29T14:06:59;27.80;99.90
44223;DHT22;29895;48.804;9.386;2023-07-29T14:09:25;28.00;99.90
44223;DHT22;29895;48.804;9.386;2023-07-29T14:11:51;28.00;99.90
44223;DHT22;29895;48.804;9.386;2023-07-29T14:14:17;27.90;99.90
44223;DHT22;29895;48.804;9.386;2023-07-29T14:16:43;27.90;99.90
44223;DHT22;29895;48.804;9.386;2023-07-29T14:19:08;27.90;99.90
44223;DHT22;29895;48.804;9.386;2023-07-29T14:21:34;27.70;99.90
44223;DHT22;29895;48.804;9.386;2023-07-29T14:24:00;27.70;99.90
44223;DHT22;29895;48.804;9.386;2023-07-29T14:26:25;27.60;99.90
44223;DHT22;29895;48.804;9.386;2023-07-29T14:28:51;27.70;99.90
44223;DHT22;29895;48.804;9.386;2023-07-29T14:31:17;27.90;99.90
44223;DHT22;29895;48.804;9.386;2023-07-29T14:33:43;28.00;99.90
44223;DHT22;29895;48.804;9.386;2023-07-29T14:36:09;28.30;99.90
44223;DHT22;29895;48.804;9.386;2023-07-29T14:38:36;28.30;99.90
44223;DHT22;29895;48.804;9.386;2023-07-29T14:41:02;28.20;99.90
44223;DHT22;29895;48.804;9.386;2023-07-29T14:43:28;28.00;99.90
44223;DHT22;29895;48.804;9.386;2023-07-29T14:45:53;28.00;99.90
44223;DHT22;29895;48.804;9.386;2023-07-29T14:48:19;27.90;99.90
44223;DHT22;29895;48.804;9.386;2023-07-29T14:50:45;27.70;99.90
44223;DHT22;29895;48.804;9.386;2023-07-29T14:53:10;27.50;99.90
44223;DHT22;29895;48.804;9.386;2023-07-29T14:55:39;27.30;99.90
44223;DHT22;29895;48.804;9.386;2023-07-29T14:58:05;27.10;99.90
44223;DHT22;29895;48.804;9.386;2023-07-29T15:00:30;26.90;99.90
44223;DHT22;29895;48.804;9.386;2023-07-29T15:02:56;26.80;99.90
44223;DHT22;29895;48.804;9.386;2023-07-29T15:05:21;26.80;99.90
44223;DHT22;29895;48.804;9.386;2023-07-29T15:07:47;26.70;99.90
44223;DHT22;29895;48.804;9.386;2023-07-29T15:10:16;26.60;99.90
44223;DHT22;29895;48.804;9.386;2023-07-29T15:12:43;26.60;99.90
44223;DHT22;29895;48.804;9.386;2023-07-29T15:15:10;26.50;99.90
44223;DHT22;29895;48.804;9.386;2023-07-29T15:17:35;26.50;99.90
44223;DHT22;29895;48.804;9.386;2023-07-29T15:20:02;26.50;99.90
44223;DHT22;29895;48.804;9.386;2023-07-29T15:22:29;26.60;99.90
44223;DHT22;29895;48.804;9.386;2023-07-29T15:24:55;26.80;99.90
44223;DHT22;29895;48.804;9.386;2023-07-29T15:27:20;27.00;99.90
44223;DHT22;29895;48.804;9.386;2023-07-29T15:29:46;27.00;99.90
44223;DHT22;29895;48.804;9.386;2023-07-29T15:32:11;26.90;99.90
44223;DHT22;29895;48.804;9.386;2023-07-29T15:34:37;27.00;99.90
44223;DHT22;29895;48.804;9.386;2023-07-29T15:37:03;27.10;99.90
44223;DHT22;29895;48.804;9.386;2023-07-29T15:39:29;27.00;99.90
44223;DHT22;29895;48.804;9.386;2023-07-29T15:41:55;27.00;99.90
44223;DHT22;29895;48.804;9.386;2023-07-29T15:44:21;27.00;99.90
44223;DHT22;29895;48.804;9.386;2023-07-29T15:46:46;27.10;99.90